createdAt,value
2023-09-04T00:01:08.666Z,23.8481
2023-09-04T00:06:10.145Z,24.13081
2023-09-04T00:11:11.648Z,23.587
2023-09-04T00:16:13.259Z,23.43199
2023-09-04T00:21:14.787Z,23.36051
2023-09-04T00:26:16.192Z,23.07622
2023-09-04T00:31:17.694Z,23.86081
2023-09-04T00:36:19.236Z,24.07617
2023-09-04T00:41:20.607Z,24.09364
2023-09-04T00:46:22.033Z,24.38302
2023-09-04T00:51:23.746Z,24.44083
2023-09-04T00:56:25.183Z,24.13621
2023-09-04T01:01:26.641Z,24.00375
2023-09-04T01:06:28.022Z,23.65021
2023-09-04T01:11:29.471Z,22.74206
2023-09-04T01:16:31.014Z,21.92921
2023-09-04T01:21:32.478Z,21.7507
2023-09-04T01:26:33.872Z,22.10773
2023-09-04T01:31:35.246Z,22.65788
2023-09-04T01:36:36.684Z,22.83291
2023-09-04T01:41:38.581Z,21.98353
2023-09-04T01:46:40.362Z,21.50707
2023-09-04T01:51:41.749Z,20.95152
2023-09-04T01:56:43.117Z,20.61769
2023-09-04T02:01:44.565Z,20.67264
2023-09-04T02:06:47.011Z,20.73839
2023-09-04T02:11:48.466Z,20.20603
2023-09-04T02:16:49.858Z,21.05285
2023-09-04T02:21:51.287Z,21.49627
2023-09-04T02:26:52.752Z,21.50675
2023-09-04T02:31:54.215Z,21.29679
2023-09-04T02:36:55.684Z,20.99948
2023-09-04T02:41:57.063Z,20.40773
2023-09-04T02:46:58.465Z,20.39343
2023-09-04T02:51:59.928Z,20.63261
2023-09-04T02:57:01.541Z,20.44711
2023-09-04T03:02:02.972Z,20.73616
2023-09-04T03:07:04.439Z,20.93183
2023-09-04T03:12:05.913Z,20.94707
2023-09-04T03:17:07.328Z,20.76062
2023-09-04T03:22:08.717Z,20.83654
2023-09-04T03:27:10.262Z,20.54812
2023-09-04T03:32:11.738Z,20.27114
2023-09-04T03:37:13.252Z,20.2451
2023-09-04T03:42:14.695Z,19.91984
2023-09-04T03:47:16.094Z,20.06532
2023-09-04T03:52:17.474Z,19.89824
2023-09-04T03:57:18.986Z,20.06182
2023-09-04T04:02:20.440Z,19.46658
2023-09-04T04:07:21.873Z,19.42878
2023-09-04T04:12:23.389Z,19.35668
2023-09-04T04:17:24.873Z,19.2633
2023-09-04T04:22:26.252Z,19.17976
2023-09-04T04:27:27.758Z,18.73031
2023-09-04T04:32:29.215Z,19.00411
2023-09-04T04:37:30.685Z,19.15562
2023-09-04T04:42:32.180Z,19.01014
2023-09-04T04:47:33.584Z,19.11115
2023-09-04T04:52:34.974Z,19.20993
2023-09-04T04:57:36.489Z,19.29792
2023-09-04T05:02:37.978Z,19.08193
2023-09-04T05:07:39.388Z,18.80146
2023-09-04T05:12:41.025Z,18.70744
2023-09-04T05:17:42.541Z,18.65853
2023-09-04T05:22:44.287Z,18.63343
2023-09-04T05:27:45.683Z,18.47748
2023-09-04T05:32:47.118Z,18.70554
2023-09-04T05:37:48.699Z,18.45937
2023-09-04T05:42:50.132Z,18.18526
2023-09-04T05:47:51.650Z,18.28214
2023-09-04T05:52:53.224Z,18.0887
2023-09-04T05:57:54.583Z,18.17224
2023-09-04T06:02:56.068Z,18.2599
2023-09-04T06:07:57.634Z,18.24529
2023-09-04T06:12:59.105Z,18.00453
2023-09-04T06:18:00.718Z,17.69802
2023-09-04T06:23:02.207Z,17.68722
2023-09-04T06:28:03.697Z,17.59956
2023-09-04T06:33:05.179Z,17.54524
2023-09-04T06:38:06.606Z,17.40136
2023-09-04T06:43:08.000Z,17.32259
2023-09-04T06:48:09.659Z,17.35785
2023-09-04T06:53:11.163Z,17.35308
2023-09-04T06:58:12.664Z,17.37944
2023-09-04T07:03:14.199Z,16.77914
2023-09-04T07:08:15.587Z,17.16028
2023-09-04T07:13:17.033Z,16.84679
2023-09-04T07:18:18.583Z,16.71371
2023-09-04T07:23:21.946Z,16.89983
2023-09-04T07:28:31.452Z,17.01958
2023-09-04T07:33:33.084Z,17.09994
2023-09-04T07:38:34.620Z,17.10152
2023-09-04T07:43:36.203Z,16.65622
2023-09-04T07:48:37.553Z,16.10133
2023-09-04T07:53:39.038Z,16.59841
2023-09-04T07:58:40.579Z,16.75309
2023-09-04T08:03:42.006Z,16.87347
2023-09-04T08:08:43.381Z,16.93445
2023-09-04T08:13:44.889Z,17.11804
2023-09-04T08:18:46.381Z,16.79946
2023-09-04T08:23:47.819Z,16.53298
2023-09-04T08:28:49.221Z,16.6235
2023-09-04T08:33:50.721Z,16.39005
2023-09-04T08:38:52.164Z,16.55458
2023-09-04T08:43:53.596Z,16.44309
2023-09-04T08:48:54.960Z,16.35448
2023-09-04T08:53:58.376Z,16.30175
2023-09-04T08:59:02.130Z,15.97016
2023-09-04T09:04:03.751Z,15.7564
2023-09-04T09:09:05.241Z,15.82945
2023-09-04T09:14:06.848Z,15.27203
2023-09-04T09:19:08.449Z,15.52708
2023-09-04T09:24:09.841Z,15.38097
2023-09-04T09:29:11.376Z,15.57599
2023-09-04T09:34:12.836Z,15.51914
2023-09-04T09:39:14.337Z,15.25456
2023-09-04T09:44:15.760Z,15.18596
2023-09-04T09:49:17.203Z,14.94806
2023-09-04T09:54:18.719Z,14.91154
2023-09-04T09:59:20.123Z,15.24091
2023-09-04T10:04:21.552Z,15.09067
2023-09-04T10:09:22.941Z,15.00619
2023-09-04T10:14:24.375Z,15.01921
2023-09-04T10:19:25.765Z,14.61488
2023-09-04T10:24:27.143Z,14.63712
2023-09-04T10:29:28.919Z,14.74034
2023-09-04T10:34:30.301Z,14.60409
2023-09-04T10:39:31.793Z,14.87565
2023-09-04T10:44:33.277Z,14.60536
2023-09-04T10:49:34.664Z,14.71493
2023-09-04T10:54:36.043Z,14.39573
2023-09-04T10:59:37.836Z,14.18992
2023-09-04T11:04:39.197Z,14.34015
2023-09-04T11:09:40.646Z,14.38017
2023-09-04T11:14:42.043Z,14.25471
2023-09-04T11:19:43.639Z,14.33316
2023-09-04T11:24:45.033Z,14.41955
2023-09-04T11:29:46.385Z,14.30013
2023-09-04T11:34:47.901Z,14.25408
2023-09-04T11:39:49.580Z,14.05398
2023-09-04T11:44:51.004Z,14.34301
2023-09-04T11:49:52.360Z,13.8326
2023-09-04T11:54:53.768Z,14.23502
2023-09-04T11:59:55.304Z,14.32427
2023-09-04T12:04:56.894Z,14.39319
2023-09-04T12:09:58.257Z,13.77829
2023-09-04T12:14:59.678Z,14.18039
2023-09-04T12:20:01.090Z,14.42813
2023-09-04T12:25:02.541Z,14.21279
2023-09-04T12:30:03.950Z,14.39986
2023-09-04T12:35:05.474Z,14.30648
2023-09-04T12:40:06.985Z,13.71699
2023-09-04T12:45:08.478Z,13.95361
2023-09-04T12:50:09.970Z,14.20897
2023-09-04T12:55:11.379Z,14.22613
2023-09-04T13:00:12.788Z,14.26487
2023-09-04T13:05:14.188Z,14.22358
2023-09-04T13:10:15.708Z,14.3195
2023-09-04T13:15:17.109Z,14.45735
2023-09-04T13:20:18.484Z,14.45163
2023-09-04T13:25:20.097Z,14.48498
2023-09-04T13:30:21.649Z,14.51261
2023-09-04T13:35:23.124Z,14.50912
2023-09-04T13:40:24.736Z,14.41606
2023-09-04T13:45:26.148Z,14.46751
2023-09-04T13:50:27.647Z,14.498
2023-09-04T13:55:29.282Z,14.5863
2023-09-04T14:00:30.867Z,14.94679
2023-09-04T14:05:32.309Z,14.68571
2023-09-04T14:10:33.941Z,14.62791
2023-09-04T14:15:37.179Z,14.55041
2023-09-04T14:20:39.884Z,15.02397
2023-09-04T14:25:41.263Z,15.28474
2023-09-04T14:30:42.645Z,15.25552
2023-09-04T14:35:44.057Z,15.21041
2023-09-04T14:40:45.610Z,15.56805
2023-09-04T14:45:56.604Z,15.49023
2023-09-04T14:51:09.521Z,15.50262
2023-09-04T14:56:10.890Z,15.55249
2023-09-04T15:01:12.508Z,16.07529
2023-09-04T15:06:14.146Z,17.38548
2023-09-04T15:11:17.056Z,17.1228
2023-09-04T15:16:18.691Z,17.47219
2023-09-04T15:21:20.188Z,16.26777
2023-09-04T15:26:21.608Z,16.2611
2023-09-04T15:31:23.143Z,16.61747
2023-09-04T15:36:24.568Z,16.49105
2023-09-04T15:41:25.985Z,16.95097
2023-09-04T15:46:27.542Z,16.17026
2023-09-04T15:51:28.959Z,16.36401
2023-09-04T15:56:30.362Z,17.19173
2023-09-04T16:01:31.905Z,16.92842
2023-09-04T16:06:33.386Z,17.9553
2023-09-04T16:11:34.901Z,18.50797
2023-09-04T16:16:36.346Z,18.58801
2023-09-04T16:21:38.046Z,17.98198
2023-09-04T16:26:39.654Z,18.39871
2023-09-04T16:31:41.169Z,19.7102
2023-09-04T16:36:42.557Z,20.09295
2023-09-04T16:41:43.960Z,20.57544
2023-09-04T16:46:45.460Z,21.043
2023-09-04T16:51:56.056Z,22.22049
2023-09-04T16:56:58.909Z,22.19349
2023-09-04T17:02:00.405Z,21.63286
2023-09-04T17:07:01.819Z,22.70458
2023-09-04T17:12:03.376Z,21.96638
2023-09-04T17:17:04.749Z,21.30886
2023-09-04T17:22:06.433Z,22.39742
2023-09-04T17:27:08.017Z,21.0808
2023-09-04T17:32:09.693Z,20.28512
2023-09-04T17:37:11.091Z,20.69678
2023-09-04T17:42:12.570Z,21.57727
2023-09-04T17:47:14.041Z,22.83164
2023-09-04T17:52:15.531Z,21.94224
2023-09-04T17:57:16.904Z,22.05945
2023-09-04T18:02:18.459Z,21.82122
2023-09-04T18:07:19.899Z,21.37938
2023-09-04T18:12:21.350Z,22.09502
2023-09-04T18:17:23.093Z,23.13943
2023-09-04T18:22:24.562Z,25.14634
2023-09-04T18:27:26.438Z,26.02274
2023-09-04T18:32:27.847Z,26.2378
2023-09-04T18:37:29.566Z,26.29085
2023-09-04T18:42:31.055Z,26.91885
2023-09-04T18:47:32.582Z,25.78482
2023-09-04T18:52:34.180Z,26.65139
2023-09-04T18:58:47.888Z,26.07389
2023-09-04T19:03:49.312Z,26.15584
2023-09-04T19:08:50.842Z,22.71601
2023-09-04T19:13:52.406Z,22.81861
2023-09-04T19:18:53.708Z,23.73248
2023-09-04T19:23:55.109Z,22.18269
2023-09-04T19:28:56.537Z,23.58128
2023-09-04T19:33:57.921Z,25.02245
2023-09-04T19:38:59.300Z,26.31785
2023-09-04T19:44:00.814Z,27.38232
2023-09-04T19:49:02.187Z,24.63015
2023-09-04T19:54:03.617Z,24.65461
2023-09-04T19:59:05.033Z,24.10635
2023-09-04T20:04:06.699Z,25.43635
2023-09-04T20:09:08.051Z,26.18094
2023-09-04T20:14:09.449Z,25.82802
2023-09-04T20:19:10.834Z,24.32807
2023-09-04T20:24:12.358Z,25.87313
2023-09-04T20:29:13.897Z,25.39474
2023-09-04T20:34:15.383Z,24.93478
2023-09-04T20:39:16.815Z,24.97163
2023-09-04T20:44:18.271Z,24.82297
2023-09-04T20:49:19.719Z,26.17014
2023-09-04T20:54:21.184Z,25.4732
2023-09-04T20:59:22.585Z,24.72545
2023-09-04T21:04:24.173Z,25.16953
2023-09-04T21:09:25.531Z,24.85378
2023-09-04T21:14:26.975Z,24.55106
2023-09-04T21:19:28.334Z,24.34776
2023-09-04T21:24:29.752Z,23.83826
2023-09-04T21:29:31.195Z,25.87122
2023-09-04T21:34:32.665Z,26.40425
2023-09-04T21:39:34.022Z,25.21495
2023-09-04T21:44:35.428Z,24.12541
2023-09-04T21:49:36.828Z,25.22861
2023-09-04T21:54:38.405Z,25.98367
2023-09-04T21:59:39.882Z,24.9405
2023-09-04T22:04:41.395Z,26.10692
2023-09-04T22:09:42.760Z,25.869
2023-09-04T22:14:44.283Z,24.37381
2023-09-04T22:19:45.652Z,23.92847
2023-09-04T22:24:47.126Z,23.76075
2023-09-04T22:29:48.540Z,22.84434
2023-09-04T22:34:49.931Z,23.52791
2023-09-04T22:39:51.535Z,22.19381
2023-09-04T22:44:52.901Z,21.77135
2023-09-04T22:49:54.373Z,22.25924
2023-09-04T22:54:55.763Z,23.28714
2023-09-04T22:59:57.145Z,23.91195
2023-09-04T23:04:58.683Z,22.44189
2023-09-04T23:10:00.186Z,23.28809
2023-09-04T23:15:01.592Z,22.67313
2023-09-04T23:20:03.111Z,23.22869
2023-09-04T23:25:04.553Z,24.01519
2023-09-04T23:30:06.126Z,24.36905
2023-09-04T23:35:07.544Z,23.99454
2023-09-04T23:40:08.891Z,24.20419
2023-09-04T23:45:10.386Z,23.85636
2023-09-04T23:50:11.799Z,23.3386
2023-09-04T23:55:13.255Z,21.07286
